Yankton, SD (57078)

11:29 PM CDT on September 21, 2014 (GMT -0500)
Gurney Municipal | Change Station
CLOSE
Current Station
Airport
Location: Yankton,
Elevation: 1306 ft
Nearby Weather Stations

Elev 1306 ft 42.92 °N, 97.39 °W | Updated 14 minutes ago

Clear
Clear
52 °F
Feels Like 52 °F
N
0
Wind Variable Wind from North

Today
High -- | Low -- °F
--% Chance of Precip.
Yesterday
High -- | Low -- °F
Precip. -- in
7:15 AM 7:28 PM
Waning Crescent, 4% visible
Pressure 30.27 in
Visibility 10.0 miles
Clouds Clear
Dew Point 45 °F
Humidity 76%
Rainfall 0.00 in
Snow Depth 0 in
UV 0 out of 12
Pollen 5.50 out of 12
Air Quality Not available.
Flu Activity Not available.
METAR KYKN 220415Z AUTO 00000KT 10SM CLR 11/07 A3027 RMK AO1

More Conditions Fewer Conditions

Pressure 30.27 in
Visibility 10.0 miles
Clouds Clear
Dew Point 45 °F
Humidity 76%
Rainfall 0.00 in
Snow Depth 0 in
UV 0 out of 12
Pollen 5.50 out of 12
Air Quality Not available.
Flu Activity Not available.
METAR KYKN 220415Z AUTO 00000KT 10SM CLR 11/07 A3027 RMK AO1

More Conditions Fewer Conditions

10-Day Weather Forecast

Almanac

Astronomy

Sep. 21, 2014 Rise Set
Actual Time 7:15 AM CDT 7:28 PM CDT
Civil Twilight 6:47 AM CDT 7:56 PM CDT
Nautical Twilight 6:14 AM CDT 8:29 PM CDT
Astronomical Twilight 5:40 AM CDT 9:03 PM CDT
Moon 4:47 AM CDT (9/21) 6:07 PM CDT (9/21)
Length of Visible Light 13h 09m
Length of Day
12h 12m
Tomorrow will be 2m 54s shorter.
Waning Crescent, 4% of the Moon is Illuminated
Sep 22
Waning Crescent
Sep 24
New
Oct 1
First Quarter
Oct 8
Full
Oct 15
Last Quarter

Today's Extremes

State Highs State Lows

Community

WunderPhotos

Upload Photos

1,755,384 photos uploaded!

Nearby

Snow Depth

Station Depth Elevation
Blind Park 0 in 6890 ft

Earthquake Activity

City Distance Mag. Time & Date
No recent earthquake activity has been reported nearby.
Minimum magnitude displayed is 2.5.

Coastal Water Temperatures

Place Temperature
No Stations Reporting

Nearby Weather Stations